createdAt,value
2019-03-02T00:01:01.353Z,37.23
2019-03-02T00:03:31.701Z,36.73
2019-03-02T00:06:00.952Z,40.30
2019-03-02T00:08:30.899Z,35.57
2019-03-02T00:10:59.600Z,36.83
2019-03-02T00:13:28.288Z,37.70
2019-03-02T00:15:57.001Z,38.67
2019-03-02T00:18:25.902Z,38.27
2019-03-02T00:20:56.387Z,42.10
2019-03-02T00:23:25.251Z,39.97
2019-03-02T00:25:54.000Z,45.07
2019-03-02T00:28:22.687Z,43.23
2019-03-02T00:30:54.725Z,50.47
2019-03-02T00:33:21.784Z,44.23
2019-03-02T00:35:50.463Z,49.93
2019-03-02T00:38:19.136Z,45.70
2019-03-02T00:40:47.821Z,46.60
2019-03-02T00:43:16.503Z,49.93
2019-03-02T00:45:45.952Z,54.93
2019-03-02T00:48:15.602Z,47.77
2019-03-02T00:50:44.311Z,58.70
2019-03-02T00:53:13.009Z,58.10
2019-03-02T00:55:41.675Z,57.30
2019-03-02T00:58:10.389Z,59.43
2019-03-02T01:00:39.039Z,68.73
2019-03-02T01:03:07.763Z,64.20
2019-03-02T01:05:37.151Z,56.30
2019-03-02T01:08:06.083Z,60.67
2019-03-02T01:10:34.782Z,67.03
2019-03-02T01:13:03.455Z,66.00
2019-03-02T01:15:32.173Z,65.57
2019-03-02T01:18:03.754Z,68.50
2019-03-02T01:20:31.259Z,70.50
2019-03-02T01:22:59.969Z,74.03
2019-03-02T01:25:28.665Z,71.20
2019-03-02T01:27:57.346Z,73.63
2019-03-02T01:30:26.627Z,79.47
2019-03-02T01:32:56.446Z,70.87
2019-03-02T01:35:25.159Z,72.63
2019-03-02T01:37:53.867Z,77.40
2019-03-02T01:40:22.549Z,70.00
2019-03-02T01:42:51.243Z,73.57
2019-03-02T01:45:19.902Z,73.90
2019-03-02T01:47:51.143Z,77.70
2019-03-02T01:50:19.041Z,72.87
2019-03-02T01:52:47.722Z,70.73
2019-03-02T01:55:16.526Z,72.63
2019-03-02T01:57:45.233Z,70.40
2019-03-02T02:00:15.365Z,64.73
2019-03-02T02:02:44.085Z,74.40
2019-03-02T02:05:12.774Z,64.77
2019-03-02T02:07:41.415Z,66.17
2019-03-02T02:10:11.225Z,71.43
2019-03-02T02:12:39.884Z,65.30
2019-03-02T02:15:09.970Z,65.37
2019-03-02T02:17:38.736Z,64.60
2019-03-02T02:20:10.961Z,65.83
2019-03-02T02:22:38.953Z,68.23
2019-03-02T02:25:08.308Z,64.57
2019-03-02T02:27:37.057Z,66.70
2019-03-02T02:30:07.090Z,69.27
2019-03-02T02:32:35.757Z,65.50
2019-03-02T02:35:04.655Z,68.67
2019-03-02T02:37:36.986Z,64.87
2019-03-02T02:40:08.149Z,65.07
2019-03-02T02:42:34.140Z,63.00
2019-03-02T02:45:02.864Z,68.37
2019-03-02T02:47:31.651Z,64.87
2019-03-02T02:50:00.357Z,69.77
2019-03-02T02:52:29.559Z,61.90
2019-03-02T02:55:02.414Z,61.90
2019-03-02T02:57:33.648Z,64.03
2019-03-02T02:59:59.181Z,60.00
2019-03-02T03:02:27.874Z,62.40
2019-03-02T03:04:56.571Z,59.73
2019-03-02T03:07:25.280Z,59.83
2019-03-02T03:10:01.541Z,65.50
2019-03-02T03:12:30.255Z,55.97
2019-03-02T03:14:59.737Z,66.73
2019-03-02T03:17:32.468Z,67.70
2019-03-02T03:19:58.965Z,61.10
2019-03-02T03:22:27.658Z,58.40
2019-03-02T03:24:56.372Z,66.90
2019-03-02T03:27:25.101Z,66.13
2019-03-02T03:29:53.759Z,66.83
2019-03-02T03:32:22.445Z,70.03
2019-03-02T03:34:51.113Z,65.57
2019-03-02T03:37:19.771Z,66.80
2019-03-02T03:39:48.481Z,58.87
2019-03-02T03:42:22.620Z,62.23
2019-03-02T03:44:47.685Z,66.90
2019-03-02T03:47:16.458Z,60.43
2019-03-02T03:49:45.119Z,54.67
2019-03-02T03:52:13.748Z,61.03
2019-03-02T03:54:45.517Z,62.90
2019-03-02T03:57:17.121Z,57.77
2019-03-02T03:59:43.238Z,61.23
2019-03-02T04:02:11.920Z,64.77
2019-03-02T04:04:40.737Z,56.70
2019-03-02T04:07:09.424Z,60.07
2019-03-02T04:09:38.122Z,60.50
2019-03-02T04:12:06.927Z,60.50
2019-03-02T04:14:35.666Z,61.50
2019-03-02T04:17:04.406Z,59.53
2019-03-02T04:19:35.375Z,59.13
2019-03-02T04:22:06.520Z,58.90
2019-03-02T04:24:39.056Z,56.20
2019-03-02T04:27:05.237Z,56.43
2019-03-02T04:29:33.942Z,57.00
2019-03-02T04:32:02.634Z,59.03
2019-03-02T04:34:31.230Z,63.20
2019-03-02T04:36:59.917Z,61.97
2019-03-02T04:39:28.606Z,61.47
2019-03-02T04:41:57.285Z,56.63
2019-03-02T04:44:29.718Z,59.80
2019-03-02T04:46:56.405Z,60.90
2019-03-02T04:49:25.196Z,56.60
2019-03-02T04:51:53.903Z,58.70
2019-03-02T04:54:22.588Z,58.17
2019-03-02T04:56:51.302Z,55.90
2019-03-02T04:59:22.052Z,54.63
2019-03-02T05:01:50.364Z,58.03
2019-03-02T05:04:18.970Z,52.53
2019-03-02T05:06:50.648Z,52.73
2019-03-02T05:09:17.998Z,55.53
2019-03-02T05:11:46.759Z,54.87
2019-03-02T05:14:15.423Z,52.20
2019-03-02T05:16:44.173Z,51.27
2019-03-02T05:19:12.907Z,54.67
2019-03-02T05:21:43.471Z,52.17
2019-03-02T05:24:12.003Z,57.87
2019-03-02T05:26:40.623Z,53.43
2019-03-02T05:29:09.309Z,52.63
2019-03-02T05:31:40.910Z,51.53
2019-03-02T05:34:08.455Z,44.27
2019-03-02T05:36:37.123Z,43.67
2019-03-02T05:39:05.872Z,30.97
2019-03-02T05:41:35.709Z,24.60
2019-03-02T07:40:12.052Z,18.70
2019-03-02T07:49:57.136Z,19.67
2019-03-02T08:03:49.649Z,21.30
2019-03-02T08:09:58.918Z,22.80
2019-03-02T08:12:44.130Z,22.57
2019-03-02T08:22:53.321Z,26.40
2019-03-02T08:25:21.984Z,25.07
2019-03-02T08:27:51.588Z,27.40
2019-03-02T08:30:20.623Z,27.10
2019-03-02T08:32:49.263Z,29.77
2019-03-02T08:35:17.917Z,28.67
2019-03-02T08:37:46.682Z,29.40
2019-03-02T08:40:15.454Z,29.30
2019-03-02T08:42:45.851Z,33.80
2019-03-02T08:45:15.194Z,34.60
2019-03-02T08:47:43.863Z,34.43
2019-03-02T08:50:13.849Z,34.13
2019-03-02T08:52:43.383Z,33.30
2019-03-02T08:55:12.898Z,32.07
2019-03-02T08:57:41.627Z,33.47
2019-03-02T09:00:11.784Z,30.47
2019-03-02T09:02:40.490Z,34.63
2019-03-02T09:05:09.093Z,31.50
2019-03-02T09:07:37.742Z,33.03
2019-03-02T09:10:10.001Z,30.60
2019-03-02T09:12:37.276Z,34.50
2019-03-02T09:15:06.381Z,31.17
2019-03-02T09:17:35.115Z,33.10
2019-03-02T09:20:03.808Z,34.53
2019-03-02T09:22:32.474Z,33.57
2019-03-02T09:25:01.174Z,33.23
2019-03-02T09:27:29.782Z,36.17
2019-03-02T09:29:59.003Z,33.20
2019-03-02T10:04:11.521Z,33.47
2019-03-02T10:06:40.320Z,30.33
2019-03-02T10:09:09.331Z,30.87
2019-03-02T10:11:38.257Z,30.00
2019-03-02T10:14:20.746Z,30.30
2019-03-02T10:16:47.841Z,33.03
2019-03-02T10:19:16.653Z,29.67
2019-03-02T10:21:47.517Z,29.10
2019-03-02T10:24:17.017Z,28.17
2019-03-02T10:26:46.286Z,29.90
2019-03-02T10:29:15.187Z,30.57
2019-03-02T10:37:10.596Z,29.67
2019-03-02T10:39:39.642Z,27.27
2019-03-02T10:45:17.934Z,31.47
2019-03-02T10:47:46.904Z,30.63
2019-03-02T10:50:35.131Z,28.97
2019-03-02T10:53:04.235Z,29.83
2019-03-02T10:55:33.076Z,28.10
2019-03-02T10:58:02.276Z,30.87
2019-03-02T11:00:31.695Z,30.97
2019-03-02T11:03:01.321Z,32.27
2019-03-02T11:06:01.560Z,30.57
2019-03-02T11:08:47.996Z,32.13
2019-03-02T11:11:34.755Z,27.43
2019-03-02T11:14:31.074Z,28.30
2019-03-02T11:17:19.748Z,30.90
2019-03-02T11:20:06.480Z,32.37
2019-03-02T11:22:59.180Z,28.93
2019-03-02T11:25:59.389Z,28.90
2019-03-02T11:28:43.869Z,28.90
2019-03-02T11:31:49.833Z,31.77
2019-03-02T11:34:46.893Z,31.30
2019-03-02T11:37:37.513Z,28.00
2019-03-02T11:40:29.597Z,32.87
2019-03-02T11:43:12.907Z,44.30
2019-03-02T11:45:58.122Z,30.87
2019-03-02T11:49:16.171Z,32.33
2019-03-02T11:51:58.655Z,29.80
2019-03-02T11:54:37.558Z,30.60
2019-03-02T11:57:30.433Z,31.20
2019-03-02T12:00:37.741Z,30.17
2019-03-02T12:06:52.928Z,30.83
2019-03-02T12:17:00.074Z,23.30
2019-03-02T12:19:51.819Z,27.70
2019-03-02T12:22:42.958Z,30.13
2019-03-02T12:25:35.099Z,29.23
2019-03-02T12:28:36.222Z,33.03
2019-03-02T12:31:32.839Z,27.53
2019-03-02T12:34:20.668Z,29.80
2019-03-02T12:37:28.533Z,29.73
2019-03-02T12:40:19.989Z,29.40
2019-03-02T12:43:10.797Z,29.53
2019-03-02T12:49:31.891Z,25.23
2019-03-02T12:59:43.539Z,27.83
2019-03-02T13:02:18.815Z,27.23
2019-03-02T13:05:36.318Z,25.77
2019-03-02T13:08:42.753Z,26.13
2019-03-02T13:11:33.719Z,27.80
2019-03-02T13:14:28.925Z,25.40
2019-03-02T13:17:19.333Z,26.97
2019-03-02T13:20:04.137Z,23.80
2019-03-02T13:22:45.523Z,30.17
2019-03-02T13:25:30.221Z,26.70
2019-03-02T13:34:16.550Z,27.43
2019-03-02T13:37:04.173Z,27.00
2019-03-02T13:46:18.260Z,24.10
2019-03-02T13:55:32.268Z,26.70
2019-03-02T13:58:19.342Z,26.50
2019-03-02T14:01:16.465Z,24.23
2019-03-02T14:07:53.649Z,22.17
2019-03-02T14:11:02.761Z,26.27
2019-03-02T14:14:15.106Z,27.67
2019-03-02T14:17:00.671Z,26.63
2019-03-02T14:20:04.420Z,29.27
2019-03-02T14:22:48.968Z,26.00
2019-03-02T14:25:33.798Z,26.37
2019-03-02T14:28:08.674Z,24.03
2019-03-02T14:30:57.090Z,27.27
2019-03-02T14:33:45.254Z,24.77
2019-03-02T14:36:40.620Z,24.70
2019-03-02T14:39:29.015Z,25.87
2019-03-02T14:42:25.520Z,24.43
2019-03-02T14:45:06.240Z,24.33
2019-03-02T14:48:02.942Z,24.13
2019-03-02T14:50:53.944Z,23.63
2019-03-02T14:53:45.127Z,25.03
2019-03-02T14:56:36.705Z,25.97
2019-03-02T14:59:23.097Z,29.07
2019-03-02T15:02:01.404Z,25.10
2019-03-02T15:04:48.184Z,23.13
2019-03-02T15:07:28.635Z,22.73
2019-03-02T15:10:18.610Z,24.50
2019-03-02T15:13:18.294Z,24.93
2019-03-02T15:16:18.346Z,24.77
2019-03-02T15:19:13.280Z,23.70
2019-03-02T15:22:20.131Z,23.93
2019-03-02T15:25:17.732Z,21.70
2019-03-02T15:28:09.637Z,24.13
2019-03-02T15:30:48.935Z,24.70
2019-03-02T15:33:37.736Z,26.60
2019-03-02T15:36:17.921Z,25.17
2019-03-02T15:39:04.585Z,22.30
2019-03-02T15:41:54.531Z,22.43
2019-03-02T15:44:42.921Z,23.17
2019-03-02T15:47:23.299Z,23.77
2019-03-02T15:50:20.303Z,23.43
2019-03-02T16:03:19.366Z,24.60
2019-03-02T16:05:57.251Z,22.33
2019-03-02T16:08:52.388Z,24.43
2019-03-02T16:11:39.759Z,26.00
2019-03-02T16:14:51.795Z,23.37
2019-03-02T16:17:27.974Z,25.80
2019-03-02T16:20:07.881Z,24.97
2019-03-02T16:22:55.825Z,23.80
2019-03-02T16:25:48.518Z,22.87
2019-03-02T16:28:38.855Z,23.07
2019-03-02T16:31:22.559Z,22.20
2019-03-02T16:34:12.412Z,26.57
2019-03-02T16:37:23.615Z,20.70
2019-03-02T16:43:28.640Z,21.90
2019-03-02T16:46:12.830Z,24.00
2019-03-02T16:48:51.264Z,20.23
2019-03-02T16:51:57.911Z,23.57
2019-03-02T16:55:01.010Z,26.77
2019-03-02T16:57:46.126Z,23.03
2019-03-02T17:00:48.624Z,22.20
2019-03-02T17:06:58.182Z,23.83
2019-03-02T17:10:06.970Z,20.27
2019-03-02T17:12:55.883Z,20.57
2019-03-02T17:16:10.902Z,18.97
2019-03-02T17:19:03.202Z,21.53
2019-03-02T17:40:38.612Z,25.10
2019-03-02T17:52:50.503Z,24.03
2019-03-02T17:55:40.047Z,26.13
2019-03-02T17:58:31.432Z,25.47
2019-03-02T18:01:05.332Z,25.57
2019-03-02T18:03:51.878Z,29.87
2019-03-02T18:06:48.518Z,27.50
2019-03-02T18:09:30.966Z,22.97
2019-03-02T18:12:11.166Z,28.47
2019-03-02T18:14:50.145Z,24.67
2019-03-02T18:17:39.906Z,27.77
2019-03-02T18:20:08.600Z,25.93
2019-03-02T18:22:37.378Z,24.70
2019-03-02T18:25:07.827Z,28.73
2019-03-02T18:27:38.662Z,27.20
2019-03-02T18:30:09.140Z,24.43
2019-03-02T18:32:37.800Z,25.23
2019-03-02T18:35:06.571Z,24.83
2019-03-02T18:37:35.264Z,28.90
2019-03-02T18:40:04.152Z,23.40
2019-03-02T18:42:32.904Z,25.23
2019-03-02T18:45:04.319Z,25.73
2019-03-02T18:47:32.052Z,26.57
2019-03-02T18:50:19.867Z,25.87
2019-03-02T18:52:58.705Z,27.20
2019-03-02T18:55:27.469Z,26.00
2019-03-02T18:57:58.312Z,31.03
2019-03-02T19:00:29.065Z,30.00
2019-03-02T19:02:57.765Z,27.73
2019-03-02T19:05:28.546Z,22.77
2019-03-02T19:07:58.116Z,24.90
2019-03-02T19:10:26.794Z,24.77
2019-03-02T19:12:55.621Z,25.10
2019-03-02T19:15:24.428Z,29.13
2019-03-02T19:17:53.176Z,26.33
2019-03-02T19:20:21.870Z,25.53
2019-03-02T19:22:50.630Z,27.00
2019-03-02T19:25:19.339Z,30.77
2019-03-02T19:27:48.107Z,29.30
2019-03-02T19:30:17.589Z,29.37
2019-03-02T19:32:46.363Z,26.93
2019-03-02T19:35:15.182Z,29.13
2019-03-02T19:37:43.895Z,28.47
2019-03-02T19:40:16.520Z,24.03
2019-03-02T19:42:47.498Z,23.23
2019-03-02T19:45:16.282Z,24.03
2019-03-02T19:47:44.930Z,25.57
2019-03-02T19:50:14.857Z,27.73
2019-03-02T19:52:43.546Z,23.90
2019-03-02T19:55:12.395Z,24.67
2019-03-02T19:57:41.079Z,28.17
2019-03-02T20:00:11.946Z,23.10
2019-03-02T20:02:40.706Z,28.20
2019-03-02T20:05:09.488Z,27.47
2019-03-02T20:07:38.183Z,26.57
2019-03-02T20:10:07.281Z,26.10
2019-03-02T20:12:36.041Z,25.97
2019-03-02T20:15:05.729Z,26.07
2019-03-02T20:17:34.509Z,28.37
2019-03-02T20:20:03.252Z,28.00
2019-03-02T20:22:31.961Z,31.00
2019-03-02T20:25:00.753Z,30.87
2019-03-02T20:27:29.515Z,28.90
2019-03-02T20:29:58.267Z,29.73
2019-03-02T20:32:26.979Z,32.57
2019-03-02T20:34:55.737Z,27.00
2019-03-02T20:37:24.577Z,26.00
2019-03-02T20:39:53.291Z,27.87
2019-03-02T20:42:22.072Z,30.27
2019-03-02T20:44:50.785Z,30.00
2019-03-02T20:47:19.778Z,31.07
2019-03-02T20:49:48.619Z,27.63
2019-03-02T20:52:17.267Z,29.03
2019-03-02T20:54:45.932Z,28.33
2019-03-02T20:57:14.722Z,27.13
2019-03-02T20:59:43.475Z,23.10
2019-03-02T21:02:12.177Z,22.03
2019-03-02T21:04:40.792Z,21.83
2019-03-02T21:07:09.635Z,21.73
2019-03-02T21:09:40.596Z,24.57
2019-03-02T21:12:08.889Z,21.00
2019-03-02T21:14:37.688Z,19.87
2019-03-02T21:17:06.390Z,24.50
2019-03-02T21:19:35.019Z,22.40
2019-03-02T21:22:03.725Z,20.13
2019-03-02T21:24:32.427Z,18.37
2019-03-02T21:27:01.167Z,19.50
2019-03-02T21:29:29.885Z,21.30
2019-03-02T21:31:58.610Z,19.93
2019-03-02T21:34:27.286Z,18.63
2019-03-02T21:36:55.972Z,23.13
2019-03-02T21:39:24.775Z,15.70
2019-03-02T21:41:53.550Z,16.37
2019-03-02T21:44:22.248Z,20.50
2019-03-02T21:46:50.979Z,16.93
2019-03-02T21:49:19.673Z,20.70
2019-03-02T21:51:48.407Z,18.57
2019-03-02T21:54:17.176Z,17.73
2019-03-02T21:56:45.837Z,17.13
2019-03-02T21:59:14.670Z,19.00
2019-03-02T22:01:43.420Z,18.00
2019-03-02T22:04:12.130Z,20.27
2019-03-02T22:06:40.904Z,17.97
2019-03-02T22:09:09.549Z,16.57
2019-03-02T22:11:38.255Z,16.63
2019-03-02T22:14:07.009Z,18.83
2019-03-02T22:16:35.720Z,16.30
2019-03-02T22:19:04.287Z,19.27
2019-03-02T22:21:32.978Z,17.17
2019-03-02T22:24:01.548Z,16.47
2019-03-02T22:26:30.199Z,19.00
2019-03-02T22:28:58.909Z,15.70
2019-03-02T22:31:27.674Z,14.17
2019-03-02T22:33:56.333Z,16.37
2019-03-02T22:36:25.045Z,16.60
2019-03-02T22:38:53.781Z,17.37
2019-03-02T22:41:22.535Z,15.23
2019-03-02T22:43:51.257Z,18.10
2019-03-02T22:46:19.991Z,19.63
2019-03-02T22:48:48.702Z,16.27
2019-03-02T22:51:17.401Z,17.57
2019-03-02T22:53:46.116Z,16.57
2019-03-02T22:56:14.814Z,15.87
2019-03-02T22:58:42.675Z,14.37
2019-03-02T23:01:15.574Z,18.73
2019-03-02T23:03:43.482Z,16.80
2019-03-02T23:06:12.208Z,16.67
2019-03-02T23:08:41.029Z,15.53
2019-03-02T23:11:09.914Z,18.07
2019-03-02T23:13:38.725Z,13.20
2019-03-02T23:16:07.445Z,15.23
2019-03-02T23:18:36.201Z,15.50
2019-03-02T23:21:04.933Z,15.33
2019-03-02T23:23:33.539Z,15.77
2019-03-02T23:26:02.193Z,13.93
2019-03-02T23:28:30.929Z,15.53
2019-03-02T23:30:59.626Z,12.90
2019-03-02T23:33:28.225Z,13.73
2019-03-02T23:35:56.925Z,15.93
2019-03-02T23:38:25.580Z,14.33
2019-03-02T23:40:54.270Z,12.87
2019-03-02T23:43:23.064Z,13.07
2019-03-02T23:45:51.706Z,14.90
2019-03-02T23:48:20.405Z,15.07
2019-03-02T23:50:48.986Z,14.10
2019-03-02T23:53:17.685Z,17.00
2019-03-02T23:55:46.408Z,14.07
2019-03-02T23:58:15.072Z,13.03
